Aviation Digital Data Service (ADDS)

Output produced by METARs form (0042 UTC 17 January 2017)
found at http://aviationweather.gov/adds/metars/
 
KAUG 162320Z 1700/1724 33004KT P6SM BKN250 
     FM172300 06006KT P6SM OVC100